sensor_id;sensor_type;location;lat;lon;timestamp;temperature;humidity
38380;DHT22;38377;47.418;18.882;2022-10-31T00:00:40;11.20;99.90
38380;DHT22;38377;47.418;18.882;2022-10-31T00:03:06;11.10;99.90
38380;DHT22;38377;47.418;18.882;2022-10-31T00:05:32;11.20;99.90
38380;DHT22;38377;47.418;18.882;2022-10-31T00:07:57;11.20;99.90
38380;DHT22;38377;47.418;18.882;2022-10-31T00:10:23;11.10;99.90
38380;DHT22;38377;47.418;18.882;2022-10-31T00:12:49;11.20;99.90
38380;DHT22;38377;47.418;18.882;2022-10-31T00:15:14;11.20;99.90
38380;DHT22;38377;47.418;18.882;2022-10-31T00:17:40;11.10;99.90
38380;DHT22;38377;47.418;18.882;2022-10-31T00:20:06;11.10;99.90
38380;DHT22;38377;47.418;18.882;2022-10-31T00:22:32;11.10;99.90
38380;DHT22;38377;47.418;18.882;2022-10-31T00:24:57;11.10;99.90
38380;DHT22;38377;47.418;18.882;2022-10-31T00:27:23;11.20;99.90
38380;DHT22;38377;47.418;18.882;2022-10-31T00:29:49;11.10;99.90
38380;DHT22;38377;47.418;18.882;2022-10-31T00:32:14;11.10;99.90
38380;DHT22;38377;47.418;18.882;2022-10-31T00:34:40;11.10;99.90
38380;DHT22;38377;47.418;18.882;2022-10-31T00:37:06;11.10;99.90
38380;DHT22;38377;47.418;18.882;2022-10-31T00:39:31;11.10;99.90
38380;DHT22;38377;47.418;18.882;2022-10-31T00:41:57;11.10;99.90
38380;DHT22;38377;47.418;18.882;2022-10-31T00:44:22;11.10;99.90
38380;DHT22;38377;47.418;18.882;2022-10-31T00:46:48;11.00;99.90
38380;DHT22;38377;47.418;18.882;2022-10-31T00:49:14;11.00;99.90
38380;DHT22;38377;47.418;18.882;2022-10-31T00:51:39;11.00;99.90
38380;DHT22;38377;47.418;18.882;2022-10-31T00:54:05;11.10;99.90
38380;DHT22;38377;47.418;18.882;2022-10-31T00:56:31;11.10;99.90
38380;DHT22;38377;47.418;18.882;2022-10-31T00:58:56;11.00;99.90
38380;DHT22;38377;47.418;18.882;2022-10-31T01:01:22;11.10;99.90
38380;DHT22;38377;47.418;18.882;2022-10-31T01:03:48;11.00;99.90
38380;DHT22;38377;47.418;18.882;2022-10-31T01:06:14;11.00;99.90
38380;DHT22;38377;47.418;18.882;2022-10-31T01:08:40;11.10;99.90
38380;DHT22;38377;47.418;18.882;2022-10-31T01:11:18;11.10;99.90
38380;DHT22;38377;47.418;18.882;2022-10-31T01:13:44;11.10;99.90
38380;DHT22;38377;47.418;18.882;2022-10-31T01:16:13;11.10;99.90
38380;DHT22;38377;47.418;18.882;2022-10-31T01:18:39;11.00;99.90
38380;DHT22;38377;47.418;18.882;2022-10-31T01:21:06;11.10;99.90
38380;DHT22;38377;47.418;18.882;2022-10-31T01:23:32;11.00;99.90
38380;DHT22;38377;47.418;18.882;2022-10-31T01:28:33;11.00;99.90
38380;DHT22;38377;47.418;18.882;2022-10-31T01:31:04;11.00;99.90
38380;DHT22;38377;47.418;18.882;2022-10-31T01:33:30;11.00;99.90
38380;DHT22;38377;47.418;18.882;2022-10-31T01:35:55;11.00;99.90
38380;DHT22;38377;47.418;18.882;2022-10-31T01:38:21;11.00;99.90
38380;DHT22;38377;47.418;18.882;2022-10-31T01:40:48;11.00;99.90
38380;DHT22;38377;47.418;18.882;2022-10-31T01:43:14;11.00;99.90
38380;DHT22;38377;47.418;18.882;2022-10-31T01:45:42;11.00;99.90
38380;DHT22;38377;47.418;18.882;2022-10-31T01:48:19;11.00;99.90
38380;DHT22;38377;47.418;18.882;2022-10-31T01:50:47;11.00;99.90
38380;DHT22;38377;47.418;18.882;2022-10-31T01:53:15;10.90;99.90
38380;DHT22;38377;47.418;18.882;2022-10-31T01:55:43;10.90;99.90
38380;DHT22;38377;47.418;18.882;2022-10-31T01:58:15;11.00;99.90
38380;DHT22;38377;47.418;18.882;2022-10-31T02:00:44;11.00;99.90
38380;DHT22;38377;47.418;18.882;2022-10-31T02:03:11;11.00;99.90
38380;DHT22;38377;47.418;18.882;2022-10-31T02:05:37;10.90;99.90
38380;DHT22;38377;47.418;18.882;2022-10-31T02:08:21;10.90;99.90
38380;DHT22;38377;47.418;18.882;2022-10-31T02:10:48;10.90;99.90
38380;DHT22;38377;47.418;18.882;2022-10-31T02:13:15;10.90;99.90
38380;DHT22;38377;47.418;18.882;2022-10-31T02:15:43;10.80;99.90
38380;DHT22;38377;47.418;18.882;2022-10-31T02:18:09;10.80;99.90
38380;DHT22;38377;47.418;18.882;2022-10-31T02:35:00;10.90;99.90
38380;DHT22;38377;47.418;18.882;2022-10-31T02:40:35;10.90;99.90
38380;DHT22;38377;47.418;18.882;2022-10-31T02:43:18;10.90;99.90
38380;DHT22;38377;47.418;18.882;2022-10-31T02:45:58;10.80;99.90
38380;DHT22;38377;47.418;18.882;2022-10-31T02:48:28;10.80;99.90
38380;DHT22;38377;47.418;18.882;2022-10-31T02:50:59;10.70;99.90
38380;DHT22;38377;47.418;18.882;2022-10-31T02:53:25;10.60;99.90
38380;DHT22;38377;47.418;18.882;2022-10-31T02:55:58;10.60;99.90
38380;DHT22;38377;47.418;18.882;2022-10-31T02:58:27;10.60;99.90
38380;DHT22;38377;47.418;18.882;2022-10-31T03:09:25;10.60;99.90
38380;DHT22;38377;47.418;18.882;2022-10-31T03:12:08;10.60;99.90
38380;DHT22;38377;47.418;18.882;2022-10-31T03:14:51;10.60;99.90
38380;DHT22;38377;47.418;18.882;2022-10-31T03:17:29;10.60;99.90
38380;DHT22;38377;47.418;18.882;2022-10-31T03:20:00;10.60;99.90
38380;DHT22;38377;47.418;18.882;2022-10-31T03:22:29;10.60;99.90
38380;DHT22;38377;47.418;18.882;2022-10-31T03:24:56;10.60;99.90
38380;DHT22;38377;47.418;18.882;2022-10-31T03:27:26;10.70;99.90
38380;DHT22;38377;47.418;18.882;2022-10-31T03:29:58;10.60;99.90
38380;DHT22;38377;47.418;18.882;2022-10-31T03:32:36;10.60;99.90
38380;DHT22;38377;47.418;18.882;2022-10-31T03:35:06;10.60;99.90
38380;DHT22;38377;47.418;18.882;2022-10-31T03:37:34;10.60;99.90
38380;DHT22;38377;47.418;18.882;2022-10-31T03:40:02;10.60;99.90
38380;DHT22;38377;47.418;18.882;2022-10-31T03:42:32;10.70;99.90
38380;DHT22;38377;47.418;18.882;2022-10-31T03:45:25;10.70;99.90
38380;DHT22;38377;47.418;18.882;2022-10-31T03:47:53;10.70;99.90
38380;DHT22;38377;47.418;18.882;2022-10-31T03:50:19;10.70;99.90
38380;DHT22;38377;47.418;18.882;2022-10-31T03:52:48;10.70;99.90
38380;DHT22;38377;47.418;18.882;2022-10-31T03:55:23;10.70;99.90
38380;DHT22;38377;47.418;18.882;2022-10-31T03:58:10;10.70;99.90
38380;DHT22;38377;47.418;18.882;2022-10-31T04:00:41;10.70;99.90
38380;DHT22;38377;47.418;18.882;2022-10-31T04:03:15;10.60;99.90
38380;DHT22;38377;47.418;18.882;2022-10-31T04:05:45;10.50;99.90
38380;DHT22;38377;47.418;18.882;2022-10-31T04:08:15;10.60;99.90
38380;DHT22;38377;47.418;18.882;2022-10-31T04:10:44;10.60;99.90
38380;DHT22;38377;47.418;18.882;2022-10-31T04:13:17;10.60;99.90
38380;DHT22;38377;47.418;18.882;2022-10-31T04:15:44;10.60;99.90
38380;DHT22;38377;47.418;18.882;2022-10-31T04:18:10;10.60;99.90
38380;DHT22;38377;47.418;18.882;2022-10-31T04:20:38;10.60;99.90
38380;DHT22;38377;47.418;18.882;2022-10-31T04:23:13;10.50;99.90
38380;DHT22;38377;47.418;18.882;2022-10-31T04:25:41;10.40;99.90
38380;DHT22;38377;47.418;18.882;2022-10-31T04:28:07;10.40;99.90
38380;DHT22;38377;47.418;18.882;2022-10-31T04:30:32;10.40;99.90
38380;DHT22;38377;47.418;18.882;2022-10-31T04:32:58;10.50;99.90
38380;DHT22;38377;47.418;18.882;2022-10-31T04:35:23;10.50;99.90
38380;DHT22;38377;47.418;18.882;2022-10-31T04:37:49;10.50;99.90
38380;DHT22;38377;47.418;18.882;2022-10-31T04:40:15;10.50;99.90
38380;DHT22;38377;47.418;18.882;2022-10-31T04:42:40;10.50;99.90
38380;DHT22;38377;47.418;18.882;2022-10-31T04:45:06;10.50;99.90
38380;DHT22;38377;47.418;18.882;2022-10-31T04:47:32;10.40;99.90
38380;DHT22;38377;47.418;18.882;2022-10-31T04:49:59;10.40;99.90
38380;DHT22;38377;47.418;18.882;2022-10-31T04:52:24;10.40;99.90
38380;DHT22;38377;47.418;18.882;2022-10-31T04:54:50;10.40;99.90
38380;DHT22;38377;47.418;18.882;2022-10-31T04:57:16;10.40;99.90
38380;DHT22;38377;47.418;18.882;2022-10-31T04:59:41;10.50;99.90
38380;DHT22;38377;47.418;18.882;2022-10-31T05:02:07;10.50;99.90
38380;DHT22;38377;47.418;18.882;2022-10-31T05:04:33;10.60;99.90
38380;DHT22;38377;47.418;18.882;2022-10-31T05:06:58;10.60;99.90
38380;DHT22;38377;47.418;18.882;2022-10-31T05:09:24;10.60;99.90
38380;DHT22;38377;47.418;18.882;2022-10-31T05:11:50;10.60;99.90
38380;DHT22;38377;47.418;18.882;2022-10-31T05:14:15;10.60;99.90
38380;DHT22;38377;47.418;18.882;2022-10-31T05:16:41;10.60;99.90
38380;DHT22;38377;47.418;18.882;2022-10-31T05:19:06;10.60;99.90
38380;DHT22;38377;47.418;18.882;2022-10-31T05:21:32;10.60;99.90
38380;DHT22;38377;47.418;18.882;2022-10-31T05:23:58;10.70;99.90
38380;DHT22;38377;47.418;18.882;2022-10-31T05:26:23;10.70;99.90
38380;DHT22;38377;47.418;18.882;2022-10-31T05:28:49;10.70;99.90
38380;DHT22;38377;47.418;18.882;2022-10-31T05:31:15;10.60;99.90
38380;DHT22;38377;47.418;18.882;2022-10-31T05:33:40;10.70;99.90
38380;DHT22;38377;47.418;18.882;2022-10-31T05:36:06;10.70;99.90
38380;DHT22;38377;47.418;18.882;2022-10-31T05:38:32;10.70;99.90
38380;DHT22;38377;47.418;18.882;2022-10-31T05:40:58;10.70;99.90
38380;DHT22;38377;47.418;18.882;2022-10-31T05:43:25;10.70;99.90
38380;DHT22;38377;47.418;18.882;2022-10-31T05:45:54;10.70;99.90
38380;DHT22;38377;47.418;18.882;2022-10-31T05:48:20;10.60;99.90
38380;DHT22;38377;47.418;18.882;2022-10-31T05:50:47;10.70;99.90
38380;DHT22;38377;47.418;18.882;2022-10-31T05:53:13;10.70;99.90
38380;DHT22;38377;47.418;18.882;2022-10-31T05:55:39;10.70;99.90
38380;DHT22;38377;47.418;18.882;2022-10-31T05:58:06;10.60;99.90
38380;DHT22;38377;47.418;18.882;2022-10-31T06:00:32;10.60;99.90
38380;DHT22;38377;47.418;18.882;2022-10-31T06:03:01;10.70;99.90
38380;DHT22;38377;47.418;18.882;2022-10-31T06:05:27;10.60;99.90
38380;DHT22;38377;47.418;18.882;2022-10-31T06:07:53;10.70;99.90
38380;DHT22;38377;47.418;18.882;2022-10-31T06:10:19;10.70;99.90
38380;DHT22;38377;47.418;18.882;2022-10-31T06:12:46;10.70;99.90
38380;DHT22;38377;47.418;18.882;2022-10-31T06:15:12;10.80;99.90
38380;DHT22;38377;47.418;18.882;2022-10-31T06:17:38;10.70;99.90
38380;DHT22;38377;47.418;18.882;2022-10-31T06:20:04;10.70;99.90
38380;DHT22;38377;47.418;18.882;2022-10-31T06:22:30;10.70;99.90
38380;DHT22;38377;47.418;18.882;2022-10-31T06:24:55;10.70;99.90
38380;DHT22;38377;47.418;18.882;2022-10-31T06:27:21;10.70;99.90
38380;DHT22;38377;47.418;18.882;2022-10-31T06:29:48;10.70;99.90
38380;DHT22;38377;47.418;18.882;2022-10-31T06:32:13;10.70;99.90
38380;DHT22;38377;47.418;18.882;2022-10-31T06:34:40;10.70;99.90
38380;DHT22;38377;47.418;18.882;2022-10-31T06:37:07;10.60;99.90
38380;DHT22;38377;47.418;18.882;2022-10-31T06:39:34;10.60;99.90
38380;DHT22;38377;47.418;18.882;2022-10-31T06:41:59;10.60;99.90
38380;DHT22;38377;47.418;18.882;2022-10-31T06:44:25;10.50;99.90
38380;DHT22;38377;47.418;18.882;2022-10-31T06:46:51;10.50;99.90
38380;DHT22;38377;47.418;18.882;2022-10-31T06:49:17;10.60;99.90
38380;DHT22;38377;47.418;18.882;2022-10-31T06:51:42;10.60;99.90
38380;DHT22;38377;47.418;18.882;2022-10-31T06:54:08;10.60;99.90
38380;DHT22;38377;47.418;18.882;2022-10-31T06:56:34;10.70;99.90
38380;DHT22;38377;47.418;18.882;2022-10-31T06:58:59;10.70;99.90
38380;DHT22;38377;47.418;18.882;2022-10-31T07:01:25;10.60;99.90
38380;DHT22;38377;47.418;18.882;2022-10-31T07:03:51;10.50;99.90
38380;DHT22;38377;47.418;18.882;2022-10-31T07:06:17;10.60;99.90
38380;DHT22;38377;47.418;18.882;2022-10-31T07:08:42;10.60;99.90
38380;DHT22;38377;47.418;18.882;2022-10-31T07:11:08;10.70;99.90
38380;DHT22;38377;47.418;18.882;2022-10-31T07:13:34;10.70;99.90
38380;DHT22;38377;47.418;18.882;2022-10-31T07:16:01;10.70;99.90
38380;DHT22;38377;47.418;18.882;2022-10-31T07:18:28;10.70;99.90
38380;DHT22;38377;47.418;18.882;2022-10-31T07:20:54;10.70;99.90
38380;DHT22;38377;47.418;18.882;2022-10-31T07:23:20;10.70;99.90
38380;DHT22;38377;47.418;18.882;2022-10-31T07:25:45;10.60;99.90
38380;DHT22;38377;47.418;18.882;2022-10-31T07:28:11;10.70;99.90
38380;DHT22;38377;47.418;18.882;2022-10-31T07:30:38;10.70;99.90
38380;DHT22;38377;47.418;18.882;2022-10-31T07:33:03;10.70;99.90
38380;DHT22;38377;47.418;18.882;2022-10-31T07:35:30;10.60;99.90
38380;DHT22;38377;47.418;18.882;2022-10-31T07:37:56;10.60;99.90
38380;DHT22;38377;47.418;18.882;2022-10-31T07:40:23;10.60;99.90
38380;DHT22;38377;47.418;18.882;2022-10-31T07:42:51;10.70;99.90
38380;DHT22;38377;47.418;18.882;2022-10-31T07:45:19;10.70;99.90
38380;DHT22;38377;47.418;18.882;2022-10-31T07:47:46;10.80;99.90
38380;DHT22;38377;47.418;18.882;2022-10-31T07:50:33;10.80;99.90
38380;DHT22;38377;47.418;18.882;2022-10-31T07:53:05;10.70;99.90
38380;DHT22;38377;47.418;18.882;2022-10-31T07:55:31;10.80;99.90
38380;DHT22;38377;47.418;18.882;2022-10-31T07:57:58;10.80;99.90
38380;DHT22;38377;47.418;18.882;2022-10-31T08:00:25;10.80;99.90
38380;DHT22;38377;47.418;18.882;2022-10-31T08:03:01;10.90;99.90
38380;DHT22;38377;47.418;18.882;2022-10-31T08:05:27;10.90;99.90
38380;DHT22;38377;47.418;18.882;2022-10-31T08:07:53;10.80;99.90
38380;DHT22;38377;47.418;18.882;2022-10-31T08:10:19;10.90;99.90
38380;DHT22;38377;47.418;18.882;2022-10-31T08:12:45;10.90;99.90
38380;DHT22;38377;47.418;18.882;2022-10-31T08:15:10;11.00;99.90
38380;DHT22;38377;47.418;18.882;2022-10-31T08:17:37;11.00;99.90
38380;DHT22;38377;47.418;18.882;2022-10-31T08:20:04;10.90;99.90
38380;DHT22;38377;47.418;18.882;2022-10-31T08:22:30;10.90;99.90
38380;DHT22;38377;47.418;18.882;2022-10-31T08:24:55;10.90;99.90
38380;DHT22;38377;47.418;18.882;2022-10-31T08:27:21;11.00;99.90
38380;DHT22;38377;47.418;18.882;2022-10-31T08:29:47;11.00;99.90
38380;DHT22;38377;47.418;18.882;2022-10-31T08:32:13;11.00;99.90
38380;DHT22;38377;47.418;18.882;2022-10-31T08:34:38;11.10;99.90
38380;DHT22;38377;47.418;18.882;2022-10-31T08:37:04;11.10;99.90
38380;DHT22;38377;47.418;18.882;2022-10-31T08:39:30;11.10;99.90
38380;DHT22;38377;47.418;18.882;2022-10-31T08:41:55;11.00;99.90
38380;DHT22;38377;47.418;18.882;2022-10-31T08:44:21;11.00;99.90
38380;DHT22;38377;47.418;18.882;2022-10-31T08:46:47;11.00;99.90
38380;DHT22;38377;47.418;18.882;2022-10-31T08:49:13;11.00;99.90
38380;DHT22;38377;47.418;18.882;2022-10-31T08:51:38;11.10;99.90
38380;DHT22;38377;47.418;18.882;2022-10-31T08:54:04;11.10;99.90
38380;DHT22;38377;47.418;18.882;2022-10-31T08:56:30;11.10;99.90
38380;DHT22;38377;47.418;18.882;2022-10-31T08:58:55;11.10;99.90
38380;DHT22;38377;47.418;18.882;2022-10-31T09:01:21;11.10;99.90
38380;DHT22;38377;47.418;18.882;2022-10-31T09:03:47;11.20;99.90
38380;DHT22;38377;47.418;18.882;2022-10-31T09:06:12;11.20;99.90
38380;DHT22;38377;47.418;18.882;2022-10-31T09:08:38;11.10;99.90
38380;DHT22;38377;47.418;18.882;2022-10-31T09:11:04;11.00;99.90
38380;DHT22;38377;47.418;18.882;2022-10-31T09:13:32;11.00;99.90
38380;DHT22;38377;47.418;18.882;2022-10-31T09:15:57;11.10;99.90
38380;DHT22;38377;47.418;18.882;2022-10-31T09:18:24;11.10;99.90
38380;DHT22;38377;47.418;18.882;2022-10-31T09:20:50;11.10;99.90
38380;DHT22;38377;47.418;18.882;2022-10-31T09:23:18;11.20;99.90
38380;DHT22;38377;47.418;18.882;2022-10-31T09:25:45;11.10;99.90
38380;DHT22;38377;47.418;18.882;2022-10-31T09:28:15;11.20;99.90
38380;DHT22;38377;47.418;18.882;2022-10-31T09:30:41;11.10;99.90
38380;DHT22;38377;47.418;18.882;2022-10-31T09:33:11;11.10;99.90
38380;DHT22;38377;47.418;18.882;2022-10-31T09:35:37;11.20;99.90
38380;DHT22;38377;47.418;18.882;2022-10-31T09:38:09;11.20;99.90
38380;DHT22;38377;47.418;18.882;2022-10-31T09:40:43;11.20;99.90
38380;DHT22;38377;47.418;18.882;2022-10-31T09:43:39;11.30;99.90
38380;DHT22;38377;47.418;18.882;2022-10-31T09:46:04;11.20;99.90
38380;DHT22;38377;47.418;18.882;2022-10-31T09:51:04;11.40;99.90
38380;DHT22;38377;47.418;18.882;2022-10-31T09:53:44;11.30;99.90
38380;DHT22;38377;47.418;18.882;2022-10-31T09:56:20;11.20;99.90
38380;DHT22;38377;47.418;18.882;2022-10-31T09:58:58;11.30;99.90
38380;DHT22;38377;47.418;18.882;2022-10-31T10:01:47;11.10;99.90
38380;DHT22;38377;47.418;18.882;2022-10-31T10:04:20;11.30;99.90
38380;DHT22;38377;47.418;18.882;2022-10-31T10:06:53;11.30;99.90
38380;DHT22;38377;47.418;18.882;2022-10-31T10:09:25;11.30;99.90
38380;DHT22;38377;47.418;18.882;2022-10-31T10:23:23;11.30;99.90
38380;DHT22;38377;47.418;18.882;2022-10-31T10:25:41;11.30;99.90
38380;DHT22;38377;47.418;18.882;2022-10-31T10:28:25;11.30;99.90
38380;DHT22;38377;47.418;18.882;2022-10-31T10:31:20;11.40;99.90
38380;DHT22;38377;47.418;18.882;2022-10-31T10:34:07;11.30;99.90
38380;DHT22;38377;47.418;18.882;2022-10-31T10:36:44;11.30;99.90
38380;DHT22;38377;47.418;18.882;2022-10-31T10:41:49;11.30;99.90
38380;DHT22;38377;47.418;18.882;2022-10-31T10:44:38;11.30;99.90
38380;DHT22;38377;47.418;18.882;2022-10-31T10:47:25;11.30;99.90
38380;DHT22;38377;47.418;18.882;2022-10-31T10:56:08;11.40;99.90
38380;DHT22;38377;47.418;18.882;2022-10-31T10:58:30;11.40;99.90
38380;DHT22;38377;47.418;18.882;2022-10-31T11:00:55;11.40;99.90
38380;DHT22;38377;47.418;18.882;2022-10-31T11:03:21;11.40;99.90
38380;DHT22;38377;47.418;18.882;2022-10-31T11:05:53;11.40;99.90
38380;DHT22;38377;47.418;18.882;2022-10-31T11:08:34;11.40;99.90
38380;DHT22;38377;47.418;18.882;2022-10-31T11:11:10;11.30;99.90
38380;DHT22;38377;47.418;18.882;2022-10-31T11:13:41;11.40;99.90
38380;DHT22;38377;47.418;18.882;2022-10-31T11:16:27;11.40;99.90
38380;DHT22;38377;47.418;18.882;2022-10-31T11:18:54;11.50;99.90
38380;DHT22;38377;47.418;18.882;2022-10-31T11:21:31;11.40;99.90
38380;DHT22;38377;47.418;18.882;2022-10-31T11:24:19;11.40;99.90
38380;DHT22;38377;47.418;18.882;2022-10-31T11:26:48;11.40;99.90
38380;DHT22;38377;47.418;18.882;2022-10-31T11:29:21;11.50;99.90
38380;DHT22;38377;47.418;18.882;2022-10-31T11:34:32;11.60;99.90
38380;DHT22;38377;47.418;18.882;2022-10-31T11:37:20;11.50;99.90
38380;DHT22;38377;47.418;18.882;2022-10-31T11:39:51;11.50;99.90
38380;DHT22;38377;47.418;18.882;2022-10-31T11:42:25;11.50;99.90
38380;DHT22;38377;47.418;18.882;2022-10-31T11:44:53;11.50;99.90
38380;DHT22;38377;47.418;18.882;2022-10-31T11:47:42;11.60;99.90
38380;DHT22;38377;47.418;18.882;2022-10-31T11:50:11;11.60;99.90
38380;DHT22;38377;47.418;18.882;2022-10-31T11:52:40;11.60;99.90
38380;DHT22;38377;47.418;18.882;2022-10-31T12:03:03;11.60;99.90
38380;DHT22;38377;47.418;18.882;2022-10-31T12:05:30;11.60;99.90
38380;DHT22;38377;47.418;18.882;2022-10-31T12:07:58;11.60;99.90
38380;DHT22;38377;47.418;18.882;2022-10-31T12:10:34;11.50;99.90
38380;DHT22;38377;47.418;18.882;2022-10-31T12:16:10;11.50;99.90
38380;DHT22;38377;47.418;18.882;2022-10-31T12:18:40;11.50;99.90
38380;DHT22;38377;47.418;18.882;2022-10-31T12:27:03;11.50;99.90
38380;DHT22;38377;47.418;18.882;2022-10-31T12:35:51;11.40;99.90
38380;DHT22;38377;47.418;18.882;2022-10-31T12:44:10;11.40;99.90
38380;DHT22;38377;47.418;18.882;2022-10-31T12:47:09;11.40;99.90
38380;DHT22;38377;47.418;18.882;2022-10-31T12:53:07;11.30;99.90
38380;DHT22;38377;47.418;18.882;2022-10-31T12:55:48;11.30;99.90
38380;DHT22;38377;47.418;18.882;2022-10-31T12:58:23;11.40;99.90
38380;DHT22;38377;47.418;18.882;2022-10-31T13:00:57;11.40;99.90
38380;DHT22;38377;47.418;18.882;2022-10-31T13:03:57;11.40;99.90
38380;DHT22;38377;47.418;18.882;2022-10-31T13:06:19;11.40;99.90
38380;DHT22;38377;47.418;18.882;2022-10-31T13:08:59;11.40;99.90
38380;DHT22;38377;47.418;18.882;2022-10-31T13:11:40;11.40;99.90
38380;DHT22;38377;47.418;18.882;2022-10-31T13:14:25;11.40;99.90
38380;DHT22;38377;47.418;18.882;2022-10-31T13:16:54;11.40;99.90
38380;DHT22;38377;47.418;18.882;2022-10-31T13:19:37;11.40;99.90
38380;DHT22;38377;47.418;18.882;2022-10-31T13:22:22;11.30;99.90
38380;DHT22;38377;47.418;18.882;2022-10-31T13:27:30;11.30;99.90
38380;DHT22;38377;47.418;18.882;2022-10-31T13:30:15;11.20;99.90
38380;DHT22;38377;47.418;18.882;2022-10-31T13:38:18;11.30;99.90
38380;DHT22;38377;47.418;18.882;2022-10-31T13:40:57;11.30;99.90
38380;DHT22;38377;47.418;18.882;2022-10-31T13:43:39;11.30;99.90
38380;DHT22;38377;47.418;18.882;2022-10-31T13:48:59;11.30;99.90
38380;DHT22;38377;47.418;18.882;2022-10-31T13:51:33;11.20;99.90
38380;DHT22;38377;47.418;18.882;2022-10-31T13:54:23;11.30;99.90
38380;DHT22;38377;47.418;18.882;2022-10-31T13:56:50;11.30;99.90
38380;DHT22;38377;47.418;18.882;2022-10-31T13:59:22;11.30;99.90
38380;DHT22;38377;47.418;18.882;2022-10-31T14:01:59;11.30;99.90
38380;DHT22;38377;47.418;18.882;2022-10-31T14:04:38;11.30;99.90
38380;DHT22;38377;47.418;18.882;2022-10-31T14:07:21;11.20;99.90
38380;DHT22;38377;47.418;18.882;2022-10-31T14:12:27;11.20;99.90
38380;DHT22;38377;47.418;18.882;2022-10-31T14:15:02;11.20;99.90
38380;DHT22;38377;47.418;18.882;2022-10-31T14:17:36;11.20;99.90
38380;DHT22;38377;47.418;18.882;2022-10-31T14:22:37;11.30;99.90
38380;DHT22;38377;47.418;18.882;2022-10-31T14:27:55;11.20;99.90
38380;DHT22;38377;47.418;18.882;2022-10-31T14:30:26;11.10;99.90
38380;DHT22;38377;47.418;18.882;2022-10-31T14:33:01;11.10;99.90
38380;DHT22;38377;47.418;18.882;2022-10-31T14:36:32;11.10;99.90
38380;DHT22;38377;47.418;18.882;2022-10-31T14:39:02;11.10;99.90
38380;DHT22;38377;47.418;18.882;2022-10-31T14:44:32;11.10;99.90
38380;DHT22;38377;47.418;18.882;2022-10-31T14:47:17;11.20;99.90
38380;DHT22;38377;47.418;18.882;2022-10-31T14:50:04;11.10;99.90
38380;DHT22;38377;47.418;18.882;2022-10-31T14:52:32;11.00;99.90
38380;DHT22;38377;47.418;18.882;2022-10-31T14:54:59;11.10;99.90
38380;DHT22;38377;47.418;18.882;2022-10-31T14:57:29;11.10;99.90
38380;DHT22;38377;47.418;18.882;2022-10-31T15:00:04;11.10;99.90
38380;DHT22;38377;47.418;18.882;2022-10-31T15:02:35;11.00;99.90
38380;DHT22;38377;47.418;18.882;2022-10-31T15:05:08;11.00;99.90
38380;DHT22;38377;47.418;18.882;2022-10-31T15:07:34;11.00;99.90
38380;DHT22;38377;47.418;18.882;2022-10-31T15:10:21;11.00;99.90
38380;DHT22;38377;47.418;18.882;2022-10-31T15:12:47;11.00;99.90
38380;DHT22;38377;47.418;18.882;2022-10-31T15:15:20;11.00;99.90
38380;DHT22;38377;47.418;18.882;2022-10-31T15:17:49;11.00;99.90
38380;DHT22;38377;47.418;18.882;2022-10-31T15:20:20;11.00;99.90
38380;DHT22;38377;47.418;18.882;2022-10-31T15:22:46;11.00;99.90
38380;DHT22;38377;47.418;18.882;2022-10-31T15:25:20;10.90;99.90
38380;DHT22;38377;47.418;18.882;2022-10-31T15:27:48;11.00;99.90
38380;DHT22;38377;47.418;18.882;2022-10-31T15:32:45;10.90;99.90
38380;DHT22;38377;47.418;18.882;2022-10-31T15:37:52;10.90;99.90
38380;DHT22;38377;47.418;18.882;2022-10-31T15:40:19;10.80;99.90
38380;DHT22;38377;47.418;18.882;2022-10-31T15:42:51;10.80;99.90
38380;DHT22;38377;47.418;18.882;2022-10-31T15:45:21;10.80;99.90
38380;DHT22;38377;47.418;18.882;2022-10-31T15:50:37;10.90;99.90
38380;DHT22;38377;47.418;18.882;2022-10-31T15:53:06;10.80;99.90
38380;DHT22;38377;47.418;18.882;2022-10-31T15:55:49;10.90;99.90
38380;DHT22;38377;47.418;18.882;2022-10-31T15:58:17;10.90;99.90
38380;DHT22;38377;47.418;18.882;2022-10-31T16:00:43;10.90;99.90
38380;DHT22;38377;47.418;18.882;2022-10-31T16:05:58;10.90;99.90
38380;DHT22;38377;47.418;18.882;2022-10-31T16:13:37;10.90;99.90
38380;DHT22;38377;47.418;18.882;2022-10-31T16:16:16;10.80;99.90
38380;DHT22;38377;47.418;18.882;2022-10-31T16:18:43;10.80;99.90
38380;DHT22;38377;47.418;18.882;2022-10-31T16:21:09;10.80;99.90
38380;DHT22;38377;47.418;18.882;2022-10-31T16:23:38;10.80;99.90
38380;DHT22;38377;47.418;18.882;2022-10-31T16:26:08;10.80;99.90
38380;DHT22;38377;47.418;18.882;2022-10-31T16:28:35;10.80;99.90
38380;DHT22;38377;47.418;18.882;2022-10-31T16:31:01;10.80;99.90
38380;DHT22;38377;47.418;18.882;2022-10-31T16:33:37;10.70;99.90
38380;DHT22;38377;47.418;18.882;2022-10-31T16:36:40;10.70;99.90
38380;DHT22;38377;47.418;18.882;2022-10-31T16:39:06;10.70;99.90
38380;DHT22;38377;47.418;18.882;2022-10-31T16:41:35;10.80;99.90
38380;DHT22;38377;47.418;18.882;2022-10-31T16:44:04;10.80;99.90
38380;DHT22;38377;47.418;18.882;2022-10-31T16:46:34;10.80;99.90
38380;DHT22;38377;47.418;18.882;2022-10-31T16:49:01;10.80;99.90
38380;DHT22;38377;47.418;18.882;2022-10-31T16:51:27;10.70;99.90
38380;DHT22;38377;47.418;18.882;2022-10-31T16:53:52;10.80;99.90
38380;DHT22;38377;47.418;18.882;2022-10-31T16:56:26;10.80;99.90
38380;DHT22;38377;47.418;18.882;2022-10-31T16:58:53;10.80;99.90
38380;DHT22;38377;47.418;18.882;2022-10-31T17:01:18;10.80;99.90
38380;DHT22;38377;47.418;18.882;2022-10-31T17:03:44;10.80;99.90
38380;DHT22;38377;47.418;18.882;2022-10-31T17:06:13;10.80;99.90
38380;DHT22;38377;47.418;18.882;2022-10-31T17:08:39;10.80;99.90
38380;DHT22;38377;47.418;18.882;2022-10-31T17:11:05;10.80;99.90
38380;DHT22;38377;47.418;18.882;2022-10-31T17:13:33;10.80;99.90
38380;DHT22;38377;47.418;18.882;2022-10-31T17:16:01;10.80;99.90
38380;DHT22;38377;47.418;18.882;2022-10-31T17:18:27;10.80;99.90
38380;DHT22;38377;47.418;18.882;2022-10-31T17:20:57;10.80;99.90
38380;DHT22;38377;47.418;18.882;2022-10-31T17:23:24;10.80;99.90
38380;DHT22;38377;47.418;18.882;2022-10-31T17:25:50;10.80;99.90
38380;DHT22;38377;47.418;18.882;2022-10-31T17:28:15;10.80;99.90
38380;DHT22;38377;47.418;18.882;2022-10-31T17:30:41;10.80;99.90
38380;DHT22;38377;47.418;18.882;2022-10-31T17:33:15;10.80;99.90
38380;DHT22;38377;47.418;18.882;2022-10-31T17:35:42;10.80;99.90